createdAt,value
2022-11-10T00:00:11.317Z,99454.84
2022-11-10T00:01:51.584Z,99467.41
2022-11-10T00:05:18.335Z,99471.25
2022-11-10T00:06:35.336Z,99472.19
2022-11-10T00:07:45.100Z,99473.25
2022-11-10T00:08:51.109Z,99482.97
2022-11-10T00:10:08.914Z,99471.63
2022-11-10T00:11:13.335Z,99470.88
2022-11-10T00:12:25.620Z,99475.22
2022-11-10T00:13:35.466Z,99481.13
2022-11-10T00:15:03.491Z,99480.34
2022-11-10T00:16:30.284Z,99482.69
2022-11-10T00:17:37.843Z,99479.09
2022-11-10T00:18:42.776Z,99477.38
2022-11-10T00:19:48.469Z,99475.69
2022-11-10T00:20:56.812Z,99478.22
2022-11-10T00:22:25.841Z,99479.34
2022-11-10T00:25:17.010Z,99493.34
2022-11-10T00:26:22.053Z,99494.97
2022-11-10T00:27:42.637Z,99491.66
2022-11-10T00:29:05.859Z,99486.47
2022-11-10T00:30:12.960Z,99485.41
2022-11-10T00:31:18.086Z,99489.66
2022-11-10T00:32:29.166Z,99484.31
2022-11-10T00:33:38.561Z,99484.22
2022-11-10T00:34:42.972Z,99482.34
2022-11-10T00:35:53.761Z,99484.03
2022-11-10T00:37:01.608Z,99489.31
2022-11-10T00:38:11.190Z,99485.16
2022-11-10T00:39:18.652Z,99485.31
2022-11-10T00:42:08.910Z,99484.63
2022-11-10T00:44:34.887Z,99488.97
2022-11-10T00:45:51.478Z,99488.88
2022-11-10T00:47:11.295Z,99489.72
2022-11-10T00:50:57.873Z,99485.91
2022-11-10T00:52:06.690Z,99492.81
2022-11-10T00:53:12.719Z,99495.34
2022-11-10T00:54:21.335Z,99501.44
2022-11-10T00:55:27.307Z,99495.34
2022-11-10T00:56:33.546Z,99496.84
2022-11-10T00:57:44.568Z,99493.25
2022-11-10T00:59:03.337Z,99493.25
2022-11-10T01:00:13.979Z,99490.47
2022-11-10T01:01:27.022Z,99499.06
2022-11-10T01:02:36.286Z,99498.22
2022-11-10T01:04:06.566Z,99500.75
2022-11-10T01:06:01.348Z,99498.06
2022-11-10T01:07:38.998Z,99498.38
2022-11-10T01:08:53.994Z,99503.84
2022-11-10T01:10:02.656Z,99503.06
2022-11-10T01:13:28.027Z,99505.78
2022-11-10T01:15:02.929Z,99503.13
2022-11-10T01:16:19.884Z,99502.22
2022-11-10T01:18:07.985Z,99502.13
2022-11-10T01:20:05.167Z,99502.22
2022-11-10T01:21:21.432Z,99500.34
2022-11-10T01:23:02.563Z,99498.53
2022-11-10T01:24:22.284Z,99501.88
2022-11-10T01:25:26.582Z,99507.09
2022-11-10T01:26:33.549Z,99501.03
2022-11-10T01:27:37.845Z,99508.03
2022-11-10T01:28:42.866Z,99502.66
2022-11-10T01:29:46.810Z,99494.81
2022-11-10T01:30:51.435Z,99503.41
2022-11-10T01:31:56.656Z,99497.16
2022-11-10T01:33:00.945Z,99492.75
2022-11-10T01:34:06.132Z,99497.00
2022-11-10T01:35:10.808Z,99501.47
2022-11-10T01:36:17.987Z,99506.75
2022-11-10T01:37:21.988Z,99511.28
2022-11-10T01:38:32.951Z,99511.19
2022-11-10T01:39:44.047Z,99515.69
2022-11-10T01:40:48.424Z,99518.34
2022-11-10T01:41:59.519Z,99516.56
2022-11-10T01:43:08.139Z,99517.41
2022-11-10T01:44:31.999Z,99523.81
2022-11-10T01:46:11.351Z,99515.13
2022-11-10T01:47:17.893Z,99522.34
2022-11-10T01:48:55.192Z,99526.94
2022-11-10T01:49:59.701Z,99515.66
2022-11-10T01:51:22.017Z,99515.00
2022-11-10T01:52:30.014Z,99522.84
2022-11-10T01:53:44.889Z,99521.81
2022-11-10T01:54:50.950Z,99532.38
2022-11-10T01:55:58.975Z,99532.38
2022-11-10T01:57:18.800Z,99528.88
2022-11-10T01:58:40.981Z,99517.38
2022-11-10T01:59:50.348Z,99527.19
2022-11-10T02:00:58.613Z,99528.03
2022-11-10T02:03:57.942Z,99528.53
2022-11-10T02:05:05.465Z,99537.25
2022-11-10T02:06:12.731Z,99532.28
2022-11-10T02:07:21.689Z,99527.84
2022-11-10T02:08:28.592Z,99536.47
2022-11-10T02:09:33.428Z,99539.97
2022-11-10T02:10:37.947Z,99540.75
2022-11-10T02:11:44.096Z,99538.00
2022-11-10T02:12:50.642Z,99534.50
2022-11-10T02:13:56.289Z,99541.53
2022-11-10T02:15:06.230Z,99539.56
2022-11-10T02:16:20.151Z,99546.53
2022-11-10T02:17:25.402Z,99550.91
2022-11-10T02:18:34.219Z,99549.47
2022-11-10T02:19:43.145Z,99543.66
2022-11-10T02:20:51.085Z,99549.59
2022-11-10T02:22:07.949Z,99550.56
2022-11-10T02:23:35.940Z,99543.66
2022-11-10T02:24:43.686Z,99547.81
2022-11-10T02:26:03.135Z,99548.53
2022-11-10T02:27:14.411Z,99544.22
2022-11-10T02:28:21.563Z,99541.59
2022-11-10T02:29:33.202Z,99541.53
2022-11-10T02:30:37.767Z,99544.09
2022-11-10T02:31:52.939Z,99550.31
2022-11-10T02:33:09.290Z,99552.97
2022-11-10T02:34:19.077Z,99556.47
2022-11-10T02:35:29.266Z,99552.09
2022-11-10T02:36:36.295Z,99558.91
2022-11-10T02:37:50.294Z,99568.66
2022-11-10T02:39:00.476Z,99556.59
2022-11-10T02:40:10.807Z,99556.78
2022-11-10T02:41:19.909Z,99559.16
2022-11-10T02:42:32.644Z,99559.00
2022-11-10T02:44:02.429Z,99564.22
2022-11-10T02:45:18.663Z,99555.34
2022-11-10T02:46:26.912Z,99560.81
2022-11-10T02:47:53.472Z,99559.88
2022-11-10T02:49:10.531Z,99554.47
2022-11-10T02:50:19.404Z,99563.19
2022-11-10T02:51:39.141Z,99553.38
2022-11-10T02:52:52.653Z,99553.34
2022-11-10T02:54:10.506Z,99558.63
2022-11-10T02:55:19.391Z,99555.03
2022-11-10T02:56:24.236Z,99556.81
2022-11-10T02:58:26.474Z,99554.09
2022-11-10T02:59:45.660Z,99552.47
2022-11-10T03:01:27.917Z,99561.19
2022-11-10T03:02:50.682Z,99566.56
2022-11-10T03:04:08.002Z,99564.06
2022-11-10T03:05:16.772Z,99559.56
2022-11-10T03:06:22.149Z,99562.22
2022-11-10T03:07:44.880Z,99561.25
2022-11-10T03:08:59.013Z,99557.69
2022-11-10T03:10:34.185Z,99562.88
2022-11-10T03:11:45.517Z,99568.34
2022-11-10T03:12:57.403Z,99576.28
2022-11-10T03:14:10.969Z,99565.63
2022-11-10T03:15:21.282Z,99569.97
2022-11-10T03:16:40.249Z,99567.41
2022-11-10T03:17:59.427Z,99575.44
2022-11-10T03:19:24.471Z,99577.13
2022-11-10T03:20:38.201Z,99576.19
2022-11-10T03:21:49.363Z,99573.56
2022-11-10T03:23:29.048Z,99582.63
2022-11-10T03:24:41.015Z,99574.78
2022-11-10T03:25:52.184Z,99574.78
2022-11-10T03:27:00.892Z,99576.59
2022-11-10T03:28:10.228Z,99577.63
2022-11-10T03:29:19.541Z,99579.31
2022-11-10T03:30:36.150Z,99583.66
2022-11-10T03:31:59.542Z,99577.53
2022-11-10T03:33:03.340Z,99575.63
2022-11-10T03:34:10.652Z,99578.28
2022-11-10T03:35:23.760Z,99583.44
2022-11-10T03:36:33.723Z,99579.13
2022-11-10T03:37:42.491Z,99584.44
2022-11-10T03:39:00.629Z,99583.56
2022-11-10T03:40:13.583Z,99575.63
2022-11-10T03:41:30.452Z,99582.63
2022-11-10T03:42:50.585Z,99589.63
2022-11-10T03:43:55.549Z,99588.19
2022-11-10T03:45:04.862Z,99579.47
2022-11-10T03:46:19.412Z,99592.63
2022-11-10T03:47:32.191Z,99594.41
2022-11-10T03:48:48.753Z,99590.13
2022-11-10T03:49:56.415Z,99581.44
2022-11-10T03:51:03.100Z,99593.53
2022-11-10T03:52:13.423Z,99590.22
2022-11-10T03:53:21.777Z,99594.66
2022-11-10T03:54:29.480Z,99593.81
2022-11-10T03:55:35.789Z,99596.28
2022-11-10T03:56:49.008Z,99597.13
2022-11-10T03:58:06.322Z,99590.97
2022-11-10T03:59:13.599Z,99597.97
2022-11-10T04:00:20.881Z,99599.72
2022-11-10T04:01:27.464Z,99603.03
2022-11-10T04:02:33.455Z,99607.38
2022-11-10T04:03:46.198Z,99594.00
2022-11-10T04:05:19.952Z,99589.50
2022-11-10T04:06:43.005Z,99588.66
2022-11-10T04:08:19.474Z,99599.06
2022-11-10T04:09:34.693Z,99600.75
2022-11-10T04:10:41.182Z,99600.94
2022-11-10T04:12:05.689Z,99607.28
2022-11-10T04:13:29.817Z,99607.38
2022-11-10T04:14:52.318Z,99608.22
2022-11-10T04:15:56.204Z,99606.22
2022-11-10T04:17:00.627Z,99601.72
2022-11-10T04:18:24.846Z,99598.97
2022-11-10T04:19:31.161Z,99605.06
2022-11-10T04:20:36.371Z,99610.06
2022-11-10T04:21:40.450Z,99613.00
2022-11-10T04:23:06.779Z,99608.69
2022-11-10T04:24:13.519Z,99607.00
2022-11-10T04:25:19.040Z,99611.19
2022-11-10T04:26:34.773Z,99611.03
2022-11-10T04:27:42.749Z,99615.63
2022-11-10T04:28:51.922Z,99607.94
2022-11-10T04:29:57.820Z,99608.56
2022-11-10T04:31:03.349Z,99601.47
2022-11-10T04:32:06.998Z,99614.59
2022-11-10T04:33:11.488Z,99606.56
2022-11-10T04:34:18.140Z,99605.91
2022-11-10T04:35:22.046Z,99614.00
2022-11-10T04:36:29.960Z,99617.25
2022-11-10T04:37:34.267Z,99616.31
2022-11-10T04:38:39.177Z,99617.94
2022-11-10T04:39:42.828Z,99621.44
2022-11-10T04:40:46.796Z,99621.34
2022-11-10T04:41:58.447Z,99621.28
2022-11-10T04:43:06.366Z,99621.28
2022-11-10T04:44:10.313Z,99614.28
2022-11-10T04:45:14.227Z,99615.22
2022-11-10T04:46:29.770Z,99613.50
2022-11-10T04:47:36.089Z,99610.69
2022-11-10T04:48:46.752Z,99606.25
2022-11-10T04:49:52.945Z,99607.88
2022-11-10T04:51:22.963Z,99611.31
2022-11-10T04:52:27.515Z,99617.34
2022-11-10T04:53:52.217Z,99620.94
2022-11-10T04:54:58.114Z,99620.75
2022-11-10T04:56:25.076Z,99617.44
2022-11-10T04:57:34.057Z,99617.13
2022-11-10T04:59:07.559Z,99617.13
2022-11-10T05:00:28.823Z,99617.88
2022-11-10T05:01:39.342Z,99615.31
2022-11-10T05:05:34.886Z,99629.31
2022-11-10T05:07:14.816Z,99634.50
2022-11-10T05:08:28.951Z,99635.31
2022-11-10T05:09:56.804Z,99642.13
2022-11-10T05:11:06.927Z,99649.22
2022-11-10T05:12:26.325Z,99649.13
2022-11-10T05:13:32.998Z,99653.56
2022-11-10T05:14:46.514Z,99647.25
2022-11-10T05:16:23.035Z,99647.50
2022-11-10T05:17:51.314Z,99653.47
2022-11-10T05:19:19.063Z,99656.06
2022-11-10T05:20:56.234Z,99651.66
2022-11-10T05:22:08.358Z,99640.19
2022-11-10T05:23:35.001Z,99647.00
2022-11-10T05:24:40.677Z,99651.44
2022-11-10T05:25:51.793Z,99650.56
2022-11-10T05:27:02.106Z,99642.53
2022-11-10T05:28:13.623Z,99654.84
2022-11-10T05:29:25.312Z,99657.47
2022-11-10T05:30:36.681Z,99666.28
2022-11-10T05:31:42.383Z,99664.47
2022-11-10T05:32:49.859Z,99673.03
2022-11-10T05:35:22.097Z,99674.41
2022-11-10T05:36:55.431Z,99665.53
2022-11-10T05:38:01.026Z,99676.81
2022-11-10T05:39:08.899Z,99669.53
2022-11-10T05:40:22.067Z,99669.63
2022-11-10T05:41:27.705Z,99676.09
2022-11-10T05:42:39.074Z,99677.81
2022-11-10T05:43:45.133Z,99675.88
2022-11-10T05:44:50.711Z,99679.47
2022-11-10T05:45:56.053Z,99678.69
2022-11-10T05:47:05.224Z,99681.25
2022-11-10T05:48:12.760Z,99684.00
2022-11-10T05:49:27.137Z,99683.63
2022-11-10T05:50:44.834Z,99685.19
2022-11-10T05:51:49.988Z,99686.97
2022-11-10T05:52:56.099Z,99682.44
2022-11-10T05:54:01.048Z,99684.09
2022-11-10T05:55:06.032Z,99682.19
2022-11-10T05:56:10.381Z,99690.72
2022-11-10T05:57:15.548Z,99691.66
2022-11-10T05:58:27.843Z,99698.59
2022-11-10T05:59:34.255Z,99701.16
2022-11-10T06:00:39.607Z,99705.50
2022-11-10T06:01:52.063Z,99712.69
2022-11-10T06:03:02.494Z,99704.56
2022-11-10T06:04:07.006Z,99708.84
2022-11-10T06:05:17.790Z,99707.81
2022-11-10T06:06:23.105Z,99718.22
2022-11-10T06:07:26.722Z,99712.16
2022-11-10T06:08:30.472Z,99713.88
2022-11-10T06:09:35.829Z,99716.53
2022-11-10T06:10:42.051Z,99721.66
2022-11-10T06:11:45.690Z,99724.13
2022-11-10T06:12:49.383Z,99722.25
2022-11-10T06:13:52.879Z,99727.38
2022-11-10T06:15:04.443Z,99723.94
2022-11-10T06:16:08.827Z,99727.38
2022-11-10T06:17:13.475Z,99732.69
2022-11-10T06:18:20.042Z,99732.50
2022-11-10T06:19:24.467Z,99728.75
2022-11-10T06:20:37.671Z,99740.09
2022-11-10T06:22:01.354Z,99736.41
2022-11-10T06:23:13.202Z,99746.84
2022-11-10T06:24:17.302Z,99742.66
2022-11-10T06:25:30.425Z,99746.84
2022-11-10T06:26:39.404Z,99752.91
2022-11-10T06:27:53.303Z,99748.47
2022-11-10T06:28:57.935Z,99746.66
2022-11-10T06:30:04.730Z,99758.13
2022-11-10T06:31:14.695Z,99759.81
2022-11-10T06:32:23.356Z,99762.47
2022-11-10T06:33:36.081Z,99766.88
2022-11-10T06:34:42.160Z,99775.72
2022-11-10T06:35:46.827Z,99774.72
2022-11-10T06:36:54.000Z,99771.97
2022-11-10T06:38:13.488Z,99770.09
2022-11-10T06:39:18.332Z,99772.59
2022-11-10T06:40:24.344Z,99774.44
2022-11-10T06:41:35.427Z,99777.94
2022-11-10T06:42:43.731Z,99779.50
2022-11-10T06:44:01.603Z,99786.41
2022-11-10T06:45:07.006Z,99787.19
2022-11-10T06:46:12.547Z,99782.84
2022-11-10T06:47:21.671Z,99791.81
2022-11-10T06:48:28.200Z,99790.78
2022-11-10T06:49:52.607Z,99802.91
2022-11-10T06:51:02.214Z,99798.56
2022-11-10T06:52:09.769Z,99798.75
2022-11-10T06:53:26.851Z,99797.88
2022-11-10T06:55:03.468Z,99804.72
2022-11-10T06:56:19.209Z,99805.66
2022-11-10T06:57:40.748Z,99805.66
2022-11-10T06:58:52.003Z,99804.81
2022-11-10T07:00:09.029Z,99810.38
2022-11-10T07:01:23.354Z,99808.66
2022-11-10T07:02:28.202Z,99809.34
2022-11-10T07:03:32.245Z,99812.84
2022-11-10T07:05:05.478Z,99806.41
2022-11-10T07:06:17.668Z,99823.03
2022-11-10T07:07:47.801Z,99824.72
2022-11-10T07:09:06.030Z,99822.09
2022-11-10T07:10:45.258Z,99826.44
2022-11-10T07:11:46.653Z,99822.09
2022-11-10T07:12:58.935Z,99826.34
2022-11-10T07:14:06.093Z,99834.47
2022-11-10T07:15:16.476Z,99830.97
2022-11-10T07:16:24.357Z,99828.91
2022-11-10T07:17:35.710Z,99829.69
2022-11-10T07:18:47.649Z,99830.34
2022-11-10T07:19:57.618Z,99829.31
2022-11-10T07:21:06.076Z,99838.16
2022-11-10T07:22:30.406Z,99836.69
2022-11-10T07:24:05.671Z,99836.78
2022-11-10T07:25:12.643Z,99836.00
2022-11-10T07:26:16.221Z,99835.84
2022-11-10T07:27:19.994Z,99838.41
2022-11-10T07:28:28.195Z,99840.72
2022-11-10T07:29:33.367Z,99842.41
2022-11-10T07:30:44.914Z,99837.88
2022-11-10T07:31:48.508Z,99839.50
2022-11-10T07:33:02.345Z,99848.22
2022-11-10T07:34:06.188Z,99844.81
2022-11-10T07:35:15.766Z,99845.66
2022-11-10T07:36:19.403Z,99852.78
2022-11-10T07:37:38.267Z,99848.56
2022-11-10T07:39:01.600Z,99849.09
2022-11-10T07:40:24.464Z,99852.69
2022-11-10T07:41:32.300Z,99849.84
2022-11-10T07:42:40.838Z,99848.75
2022-11-10T07:43:48.821Z,99844.94
2022-11-10T07:45:01.845Z,99858.09
2022-11-10T07:46:12.654Z,99853.63
2022-11-10T07:47:21.099Z,99856.34
2022-11-10T07:48:39.414Z,99860.75
2022-11-10T07:49:43.124Z,99858.22
2022-11-10T07:50:54.208Z,99866.16
2022-11-10T07:52:29.679Z,99861.59
2022-11-10T07:53:48.238Z,99864.31
2022-11-10T07:54:59.433Z,99858.84
2022-11-10T07:56:10.674Z,99859.59
2022-11-10T07:57:34.002Z,99866.81
2022-11-10T07:59:09.438Z,99859.59
2022-11-10T08:00:34.367Z,99868.81
2022-11-10T08:01:47.485Z,99870.31
2022-11-10T08:03:06.907Z,99875.34
2022-11-10T08:06:01.720Z,99878.38
2022-11-10T08:07:08.876Z,99879.03
2022-11-10T08:08:28.679Z,99879.88
2022-11-10T08:09:33.788Z,99879.72
2022-11-10T08:10:38.827Z,99878.88
2022-11-10T08:11:42.559Z,99879.81
2022-11-10T08:12:46.322Z,99879.88
2022-11-10T08:13:50.077Z,99881.63
2022-11-10T08:14:56.937Z,99892.56
2022-11-10T08:16:00.693Z,99888.78
2022-11-10T08:17:07.693Z,99894.09
2022-11-10T08:18:32.361Z,99887.84
2022-11-10T08:19:43.812Z,99888.78
2022-11-10T08:20:51.685Z,99898.44
2022-11-10T08:21:56.121Z,99910.72
2022-11-10T08:23:06.045Z,99892.03
2022-11-10T08:24:17.902Z,99901.72
2022-11-10T08:25:24.081Z,99899.06
2022-11-10T08:26:32.323Z,99903.25
2022-11-10T08:27:42.493Z,99910.06
2022-11-10T08:28:46.993Z,99904.56
2022-11-10T08:29:50.986Z,99906.84
2022-11-10T08:31:01.607Z,99898.69
2022-11-10T08:32:09.485Z,99907.41
2022-11-10T08:33:20.042Z,99909.31
2022-11-10T08:34:25.313Z,99914.44
2022-11-10T08:35:32.402Z,99911.97
2022-11-10T08:36:38.368Z,99911.72
2022-11-10T08:37:44.323Z,99921.97
2022-11-10T08:39:09.518Z,99927.00
2022-11-10T08:40:20.796Z,99929.56
2022-11-10T08:41:28.493Z,99921.69
2022-11-10T08:42:35.672Z,99924.34
2022-11-10T08:43:52.281Z,99929.41
2022-11-10T08:44:58.621Z,99929.41
2022-11-10T08:46:02.485Z,99920.50
2022-11-10T08:47:11.886Z,99932.81
2022-11-10T08:48:40.534Z,99926.31
2022-11-10T08:49:51.743Z,99933.06
2022-11-10T08:51:03.580Z,99932.38
2022-11-10T08:52:15.241Z,99937.34
2022-11-10T08:53:30.329Z,99937.13
2022-11-10T08:56:05.826Z,99938.69
2022-11-10T08:57:15.380Z,99934.03
2022-11-10T08:58:29.732Z,99932.06
2022-11-10T08:59:38.048Z,99938.03
2022-11-10T09:01:01.108Z,99933.56
2022-11-10T09:02:06.879Z,99940.78
2022-11-10T09:03:18.902Z,99951.50
2022-11-10T09:04:23.689Z,99962.22
2022-11-10T09:05:33.362Z,99965.44
2022-11-10T09:06:38.986Z,99967.25
2022-11-10T09:07:51.452Z,99973.34
2022-11-10T09:08:57.328Z,99975.16
2022-11-10T09:10:08.688Z,99978.66
2022-11-10T09:11:15.311Z,99974.19
2022-11-10T09:12:25.670Z,99973.16
2022-11-10T09:13:33.629Z,99974.88
2022-11-10T09:14:51.754Z,99982.66
2022-11-10T09:16:08.615Z,99977.16
2022-11-10T09:17:15.918Z,99981.63
2022-11-10T09:18:20.475Z,99978.78
2022-11-10T09:19:28.683Z,99986.75
2022-11-10T09:20:45.045Z,99981.63
2022-11-10T09:21:56.044Z,99982.94
2022-11-10T09:23:36.268Z,99980.94
2022-11-10T09:24:55.306Z,99986.44
2022-11-10T09:26:10.673Z,99998.09
2022-11-10T09:27:18.317Z,99989.09
2022-11-10T09:28:35.377Z,99995.84
2022-11-10T09:29:43.833Z,99996.72
2022-11-10T09:30:52.151Z,99995.66
2022-11-10T09:32:03.431Z,99995.50
2022-11-10T09:33:09.804Z,99996.16
2022-11-10T09:34:15.273Z,99991.13
2022-11-10T09:35:19.879Z,99990.19
2022-11-10T09:36:26.446Z,99980.31
2022-11-10T09:37:41.453Z,99974.63
2022-11-10T09:38:48.168Z,99976.69
2022-11-10T09:39:55.897Z,99984.56
2022-11-10T09:41:16.014Z,99986.22
2022-11-10T09:42:41.793Z,99978.91
2022-11-10T09:44:06.563Z,99985.56
2022-11-10T09:45:39.634Z,99983.00
2022-11-10T09:46:59.254Z,99986.31
2022-11-10T09:48:33.193Z,99985.09
2022-11-10T09:49:57.214Z,99982.44
2022-11-10T09:51:15.841Z,99987.97
2022-11-10T09:52:44.043Z,99993.81
2022-11-10T09:54:04.658Z,99993.75
2022-11-10T09:55:40.835Z,99991.00
2022-11-10T09:56:45.726Z,99991.09
2022-11-10T09:58:06.705Z,99989.09
2022-11-10T09:59:26.617Z,99987.19
2022-11-10T10:00:38.312Z,99995.00
2022-11-10T10:01:50.905Z,100000.81
2022-11-10T10:03:32.059Z,100001.66
2022-11-10T10:05:26.533Z,100005.75
2022-11-10T10:06:49.917Z,100004.22
2022-11-10T10:08:12.360Z,99999.38
2022-11-10T10:09:42.813Z,100000.03
2022-11-10T10:11:19.259Z,100012.31
2022-11-10T10:13:27.889Z,100021.78
2022-11-10T10:15:13.812Z,100013.44
2022-11-10T10:16:32.160Z,100011.06
2022-11-10T10:17:49.511Z,100016.00
2022-11-10T10:19:38.706Z,100021.78
2022-11-10T10:21:23.135Z,100027.97
2022-11-10T10:23:01.578Z,100027.31
2022-11-10T10:24:21.558Z,100025.88
2022-11-10T10:25:28.581Z,100026.47
2022-11-10T10:26:59.740Z,100020.09
2022-11-10T10:28:26.056Z,100029.41
2022-11-10T10:29:50.424Z,100026.84
2022-11-10T10:31:13.248Z,100037.38
2022-11-10T10:32:22.787Z,100046.13
2022-11-10T10:33:31.790Z,100036.19
2022-11-10T10:34:36.699Z,100033.75
2022-11-10T10:35:43.498Z,100037.03
2022-11-10T10:36:59.279Z,100031.91
2022-11-10T10:38:24.662Z,100040.56
2022-11-10T10:39:45.156Z,100042.09
2022-11-10T10:41:04.204Z,100038.38
2022-11-10T10:42:48.995Z,100042.72
2022-11-10T10:44:27.065Z,100046.16
2022-11-10T10:46:30.286Z,100051.19
2022-11-10T10:47:41.161Z,100048.16
2022-11-10T10:48:50.556Z,100047.78
2022-11-10T10:51:00.330Z,100046.44
2022-11-10T10:52:17.595Z,100044.81
2022-11-10T10:53:29.002Z,100036.66
2022-11-10T10:55:17.836Z,100041.03
2022-11-10T10:56:34.809Z,100047.88
2022-11-10T10:58:13.454Z,100047.69
2022-11-10T10:59:28.804Z,100037.25
2022-11-10T11:00:50.706Z,100041.50
2022-11-10T11:02:03.346Z,100039.97
2022-11-10T11:03:43.745Z,100048.63
2022-11-10T11:06:56.725Z,100049.66
2022-11-10T11:08:05.154Z,100050.53
2022-11-10T11:09:24.813Z,100055.53
2022-11-10T11:10:45.261Z,100055.44
2022-11-10T11:12:22.839Z,100052.59
2022-11-10T11:13:32.423Z,100059.91
2022-11-10T11:14:40.689Z,100055.28
2022-11-10T11:16:05.686Z,100056.97
2022-11-10T11:17:24.453Z,100062.50
2022-11-10T11:18:40.085Z,100052.88
2022-11-10T11:19:45.502Z,100059.75
2022-11-10T11:21:20.255Z,100056.78
2022-11-10T11:22:52.181Z,100059.34
2022-11-10T11:24:21.762Z,100050.78
2022-11-10T11:25:43.138Z,100062.31
2022-11-10T11:27:04.141Z,100061.91
2022-11-10T11:28:51.597Z,100055.28
2022-11-10T11:30:37.173Z,100064.00
2022-11-10T11:32:21.661Z,100058.78
2022-11-10T11:33:42.428Z,100067.34
2022-11-10T11:35:04.842Z,100062.88
2022-11-10T11:36:33.426Z,100061.06
2022-11-10T11:38:14.382Z,100064.09
2022-11-10T11:40:15.190Z,100060.97
2022-11-10T11:41:50.304Z,100057.63
2022-11-10T11:43:49.481Z,100060.38
2022-11-10T11:45:47.155Z,100066.19
2022-11-10T11:47:35.359Z,100076.38
2022-11-10T11:49:27.783Z,100075.22
2022-11-10T11:51:36.151Z,100080.56
2022-11-10T11:53:23.934Z,100086.91
2022-11-10T11:54:57.286Z,100086.72
2022-11-10T11:56:06.720Z,100086.84
2022-11-10T11:57:55.990Z,100090.25
2022-11-10T11:59:26.455Z,100084.94
2022-11-10T12:01:08.763Z,100095.28
2022-11-10T12:02:52.461Z,100093.66
2022-11-10T12:04:25.274Z,100091.75
2022-11-10T12:05:51.697Z,100092.31
2022-11-10T12:07:31.827Z,100089.38
2022-11-10T12:08:59.438Z,100089.00
2022-11-10T12:10:29.751Z,100085.19
2022-11-10T12:12:17.628Z,100085.06
2022-11-10T12:13:43.058Z,100080.72
2022-11-10T12:14:57.785Z,100089.28
2022-11-10T12:16:33.552Z,100088.31
2022-11-10T12:18:34.918Z,100093.47
2022-11-10T12:20:02.592Z,100096.50
2022-11-10T12:21:21.850Z,100102.38
2022-11-10T12:23:18.356Z,100093.53
2022-11-10T12:24:45.375Z,100106.50
2022-11-10T12:26:35.376Z,100099.56
2022-11-10T12:27:56.283Z,100093.28
2022-11-10T12:29:18.455Z,100098.41
2022-11-10T12:30:26.238Z,100100.13
2022-11-10T12:31:39.838Z,100102.13
2022-11-10T12:33:22.604Z,100101.06
2022-11-10T12:34:57.799Z,100103.94
2022-11-10T12:36:14.739Z,100106.88
2022-11-10T12:37:50.101Z,100110.38
2022-11-10T12:39:29.766Z,100108.97
2022-11-10T12:40:58.245Z,100110.78
2022-11-10T12:42:12.425Z,100109.63
2022-11-10T12:44:03.249Z,100117.44
2022-11-10T12:45:55.755Z,100111.16
2022-11-10T12:47:06.370Z,100115.81
2022-11-10T12:48:30.860Z,100112.84
2022-11-10T12:50:10.632Z,100120.00
2022-11-10T12:51:51.621Z,100118.81
2022-11-10T12:53:51.371Z,100121.97
2022-11-10T12:55:05.912Z,100123.22
2022-11-10T12:56:31.250Z,100122.34
2022-11-10T12:57:53.484Z,100122.75
2022-11-10T12:59:21.787Z,100126.81
2022-11-10T13:00:42.078Z,100121.31
2022-11-10T13:02:08.382Z,100124.84
2022-11-10T13:03:39.438Z,100120.94
2022-11-10T13:05:31.052Z,100121.78
2022-11-10T13:06:37.321Z,100128.13
2022-11-10T13:08:22.665Z,100131.00
2022-11-10T13:09:41.123Z,100130.81
2022-11-10T13:11:12.362Z,100127.28
2022-11-10T13:12:26.602Z,100130.91
2022-11-10T13:13:59.957Z,100135.16
2022-11-10T13:15:39.628Z,100134.31
2022-11-10T13:16:45.396Z,100143.09
2022-11-10T13:17:51.139Z,100138.63
2022-11-10T13:18:57.503Z,100145.66
2022-11-10T13:20:30.053Z,100146.28
2022-11-10T13:21:51.627Z,100144.41
2022-11-10T13:22:56.916Z,100147.94
2022-11-10T13:24:02.743Z,100148.03
2022-11-10T13:25:40.715Z,100143.09
2022-11-10T13:26:44.595Z,100150.88
2022-11-10T13:27:53.519Z,100147.25
2022-11-10T13:29:00.457Z,100152.91
2022-11-10T13:30:43.696Z,100164.41
2022-11-10T13:31:59.879Z,100162.38
2022-11-10T13:33:29.811Z,100171.53
2022-11-10T13:34:46.320Z,100166.28
2022-11-10T13:35:57.951Z,100167.06
2022-11-10T13:37:04.005Z,100165.25
2022-11-10T13:38:46.789Z,100166.50
2022-11-10T13:40:40.729Z,100167.81
2022-11-10T13:42:17.541Z,100170.28
2022-11-10T13:43:27.326Z,100171.22
2022-11-10T13:44:43.418Z,100176.19
2022-11-10T13:45:48.286Z,100166.59
2022-11-10T13:47:38.923Z,100169.34
2022-11-10T13:49:04.357Z,100177.34
2022-11-10T13:50:23.902Z,100174.09
2022-11-10T13:52:06.075Z,100178.09
2022-11-10T13:53:51.209Z,100180.06
2022-11-10T13:55:50.757Z,100175.31
2022-11-10T13:57:24.625Z,100182.47
2022-11-10T13:58:34.768Z,100181.50
2022-11-10T14:00:01.477Z,100190.47
2022-11-10T14:01:17.420Z,100188.38
2022-11-10T14:02:45.772Z,100183.81
2022-11-10T14:03:57.502Z,100183.41
2022-11-10T14:05:03.232Z,100185.41
2022-11-10T14:06:30.537Z,100188.75
2022-11-10T14:07:46.455Z,100182.47
2022-11-10T14:09:10.667Z,100185.34
2022-11-10T14:10:56.029Z,100191.31
2022-11-10T14:12:17.705Z,100188.53
2022-11-10T14:13:49.045Z,100197.31
2022-11-10T14:15:31.647Z,100200.06
2022-11-10T14:16:43.188Z,100201.00
2022-11-10T14:17:56.298Z,100200.25
2022-11-10T14:19:39.368Z,100209.09
2022-11-10T14:20:47.007Z,100207.88
2022-11-10T14:22:07.711Z,100206.94
2022-11-10T14:23:45.094Z,100209.59
2022-11-10T14:25:31.074Z,100210.66
2022-11-10T14:26:59.204Z,100219.50
2022-11-10T14:28:23.622Z,100223.97
2022-11-10T14:29:47.624Z,100218.44
2022-11-10T14:30:55.888Z,100220.53
2022-11-10T14:32:04.466Z,100218.22
2022-11-10T14:33:14.511Z,100221.84
2022-11-10T14:34:19.948Z,100228.88
2022-11-10T14:35:30.944Z,100225.31
2022-11-10T14:36:35.453Z,100222.63
2022-11-10T14:37:46.356Z,100227.00
2022-11-10T14:39:07.014Z,100227.19
2022-11-10T14:40:22.873Z,100231.09
2022-11-10T14:41:28.025Z,100224.13
2022-11-10T14:42:37.823Z,100217.84
2022-11-10T14:44:08.204Z,100232.88
2022-11-10T14:45:29.202Z,100226.53
2022-11-10T14:46:49.526Z,100234.91
2022-11-10T14:47:57.890Z,100231.19
2022-11-10T14:49:05.478Z,100228.50
2022-11-10T14:50:16.292Z,100243.84
2022-11-10T14:51:23.718Z,100240.22
2022-11-10T14:52:28.544Z,100245.81
2022-11-10T14:53:53.261Z,100244.00
2022-11-10T14:54:59.898Z,100246.69
2022-11-10T14:56:16.802Z,100248.31
2022-11-10T14:57:21.210Z,100247.94
2022-11-10T14:58:36.451Z,100253.06
2022-11-10T14:59:41.148Z,100246.03
2022-11-10T15:00:53.098Z,100248.69
2022-11-10T15:02:14.305Z,100256.47
2022-11-10T15:03:40.569Z,100245.81
2022-11-10T15:05:02.155Z,100256.78
2022-11-10T15:06:20.189Z,100253.25
2022-11-10T15:07:37.726Z,100257.78
2022-11-10T15:08:44.878Z,100262.38
2022-11-10T15:10:24.116Z,100264.28
2022-11-10T15:12:18.287Z,100263.50
2022-11-10T15:13:34.814Z,100270.53
2022-11-10T15:14:47.301Z,100267.88
2022-11-10T15:16:39.129Z,100268.75
2022-11-10T15:17:58.969Z,100273.00
2022-11-10T15:19:32.374Z,100277.47